createdAt,value
2018-04-15T00:01:04.244Z,13.60
2018-04-15T00:03:32.033Z,13.50
2018-04-15T00:05:59.699Z,13.50
2018-04-15T00:08:27.232Z,13.40
2018-04-15T00:10:54.772Z,13.30
2018-04-15T00:13:23.080Z,13.40
2018-04-15T00:15:50.601Z,13.40
2018-04-15T00:18:18.181Z,13.40
2018-04-15T00:20:45.734Z,13.30
2018-04-15T00:23:14.021Z,13.20
2018-04-15T00:25:41.598Z,13.20
2018-04-15T00:28:09.268Z,13.10
2018-04-15T00:30:36.765Z,13.10
2018-04-15T00:33:04.297Z,13.10
2018-04-15T00:35:31.900Z,13.20
2018-04-15T00:38:00.226Z,13.20
2018-04-15T00:40:27.713Z,13.10
2018-04-15T00:42:55.329Z,13.10
2018-04-15T00:45:22.829Z,13.00
2018-04-15T00:47:50.443Z,12.90
2018-04-15T00:50:17.947Z,13.00
2018-04-15T00:52:46.994Z,12.70
2018-04-15T00:55:14.557Z,12.70
2018-04-15T00:57:42.159Z,12.60
2018-04-15T01:00:09.661Z,12.60
2018-04-15T01:02:37.225Z,12.60
2018-04-15T01:05:04.799Z,12.70
2018-04-15T01:07:33.937Z,12.60
2018-04-15T01:10:01.536Z,12.80
2018-04-15T01:12:29.048Z,12.80
2018-04-15T01:14:56.576Z,12.80
2018-04-15T01:17:24.106Z,12.80
2018-04-15T01:19:51.632Z,12.80
2018-04-15T01:22:20.017Z,12.80
2018-04-15T01:24:48.311Z,12.70
2018-04-15T01:27:15.805Z,12.70
2018-04-15T01:29:43.317Z,12.70
2018-04-15T01:32:11.635Z,12.60
2018-04-15T01:34:39.274Z,12.60
2018-04-15T01:37:06.832Z,12.70
2018-04-15T01:39:34.346Z,12.70
2018-04-15T01:42:02.768Z,12.60
2018-04-15T01:44:30.887Z,12.50
2018-04-15T01:46:58.474Z,12.50
2018-04-15T01:49:26.017Z,12.50
2018-04-15T01:51:54.302Z,12.40
2018-04-15T01:54:22.654Z,12.30
2018-04-15T01:56:50.194Z,12.30
2018-04-15T01:59:17.729Z,12.30
2018-04-15T02:01:45.255Z,12.30
2018-04-15T02:04:13.593Z,12.20
2018-04-15T02:06:41.135Z,12.20
2018-04-15T02:09:09.609Z,12.20
2018-04-15T02:11:37.155Z,12.10
2018-04-15T02:14:04.661Z,12.20
2018-04-15T02:16:33.669Z,12.10
2018-04-15T02:19:02.029Z,12.20
2018-04-15T02:21:29.526Z,12.20
2018-04-15T02:23:57.077Z,12.30
2018-04-15T02:26:25.361Z,12.30
2018-04-15T02:28:52.886Z,12.30
2018-04-15T02:31:20.421Z,12.30
2018-04-15T02:33:47.949Z,12.20
2018-04-15T02:36:15.484Z,12.10
2018-04-15T02:38:43.018Z,12.20
2018-04-15T02:41:11.299Z,12.20
2018-04-15T02:43:39.597Z,12.20
2018-04-15T02:46:07.111Z,12.20
2018-04-15T02:48:34.671Z,12.30
2018-04-15T02:51:02.201Z,12.30
2018-04-15T02:53:29.707Z,12.30
2018-04-15T02:55:59.029Z,12.30
2018-04-15T02:58:26.573Z,12.30
2018-04-15T03:00:54.894Z,12.10
2018-04-15T03:03:22.420Z,12.10
2018-04-15T03:05:49.991Z,12.10
2018-04-15T03:08:17.520Z,12.00
2018-04-15T03:10:45.041Z,12.00
2018-04-15T03:13:12.674Z,12.10
2018-04-15T03:15:40.216Z,12.10
2018-04-15T03:18:07.725Z,12.10
2018-04-15T03:20:35.229Z,12.10
2018-04-15T03:23:02.808Z,12.10
2018-04-15T03:25:30.307Z,12.10
2018-04-15T03:27:57.915Z,12.00
2018-04-15T03:30:26.192Z,12.10
2018-04-15T03:32:53.720Z,12.00
2018-04-15T03:35:22.002Z,12.10
2018-04-15T03:37:49.557Z,12.10
2018-04-15T03:40:17.833Z,12.10
2018-04-15T03:42:46.136Z,12.00
2018-04-15T03:45:13.700Z,12.00
2018-04-15T03:47:41.222Z,12.10
2018-04-15T03:50:09.520Z,12.00
2018-04-15T03:52:37.053Z,12.00
2018-04-15T03:55:05.375Z,12.20
2018-04-15T03:57:32.959Z,12.10
2018-04-15T04:00:00.530Z,12.30
2018-04-15T04:02:29.542Z,12.40
2018-04-15T04:04:57.882Z,12.40
2018-04-15T04:07:25.473Z,12.30
2018-04-15T04:09:53.757Z,12.20
2018-04-15T04:12:21.296Z,12.20
2018-04-15T04:14:48.816Z,12.10
2018-04-15T04:17:16.336Z,12.20
2018-04-15T04:19:55.698Z,12.30
2018-04-15T04:22:35.169Z,12.20
2018-04-15T04:25:26.372Z,12.10
2018-04-15T04:27:53.967Z,12.10
2018-04-15T04:30:22.245Z,12.00
2018-04-15T04:32:51.471Z,12.00
2018-04-15T04:35:19.551Z,12.00
2018-04-15T04:37:47.620Z,12.00
2018-04-15T04:40:15.748Z,12.00
2018-04-15T04:42:44.057Z,12.00
2018-04-15T04:45:11.589Z,11.90
2018-04-15T04:47:39.869Z,11.90
2018-04-15T04:50:07.758Z,11.90
2018-04-15T04:52:35.256Z,11.90
2018-04-15T04:55:02.808Z,11.80
2018-04-15T04:57:30.319Z,11.90
2018-04-15T04:59:57.992Z,11.80
2018-04-15T05:02:25.562Z,11.80
2018-04-15T05:04:53.086Z,11.80
2018-04-15T05:07:20.637Z,11.80
2018-04-15T05:09:48.946Z,11.70
2018-04-15T05:12:16.453Z,11.70
2018-04-15T05:14:43.980Z,11.70
2018-04-15T05:17:11.764Z,11.70
2018-04-15T05:19:39.234Z,11.80
2018-04-15T05:22:06.741Z,11.80
2018-04-15T05:24:34.396Z,11.70
2018-04-15T05:27:01.898Z,11.60
2018-04-15T05:29:29.453Z,11.60
2018-04-15T05:31:56.955Z,11.60
2018-04-15T05:34:24.474Z,11.60
2018-04-15T05:36:52.088Z,11.60
2018-04-15T05:39:19.644Z,11.60
2018-04-15T05:41:47.157Z,11.60
2018-04-15T05:44:15.439Z,11.60
2018-04-15T05:46:43.739Z,11.50
2018-04-15T05:49:11.298Z,11.50
2018-04-15T05:51:38.863Z,11.50
2018-04-15T05:54:06.377Z,11.50
2018-04-15T05:56:34.169Z,11.50
2018-04-15T05:59:01.726Z,11.50
2018-04-15T06:01:29.280Z,11.50
2018-04-15T06:03:56.884Z,11.50
2018-04-15T06:06:24.421Z,11.50
2018-04-15T06:08:51.987Z,11.50
2018-04-15T06:11:19.485Z,11.60
2018-04-15T06:13:47.105Z,11.60
2018-04-15T06:16:14.584Z,11.70
2018-04-15T06:18:42.113Z,11.80
2018-04-15T06:21:09.777Z,11.90
2018-04-15T06:23:37.276Z,12.00
2018-04-15T06:26:04.857Z,12.10
2018-04-15T06:28:33.160Z,12.40
2018-04-15T06:31:00.741Z,12.50
2018-04-15T06:33:28.377Z,12.40
2018-04-15T06:35:55.927Z,12.30
2018-04-15T06:38:23.451Z,12.50
2018-04-15T06:40:50.960Z,12.60
2018-04-15T06:43:18.516Z,12.70
2018-04-15T06:45:46.073Z,12.50
2018-04-15T06:48:13.609Z,12.50
2018-04-15T06:50:41.131Z,12.70
2018-04-15T06:53:08.687Z,12.80
2018-04-15T06:55:36.201Z,12.90
2018-04-15T06:58:03.777Z,12.80
2018-04-15T07:00:31.302Z,12.60
2018-04-15T07:02:58.828Z,12.90
2018-04-15T07:05:26.332Z,13.30
2018-04-15T07:07:53.852Z,13.30
2018-04-15T07:10:22.160Z,13.50
2018-04-15T07:12:49.697Z,13.50
2018-04-15T07:15:18.328Z,13.30
2018-04-15T07:17:45.817Z,13.30
2018-04-15T07:20:13.530Z,13.30
2018-04-15T07:22:41.035Z,13.00
2018-04-15T07:25:08.572Z,12.90
2018-04-15T07:27:36.147Z,12.90
2018-04-15T07:30:03.662Z,13.20
2018-04-15T07:32:31.237Z,13.50
2018-04-15T07:34:58.848Z,13.60
2018-04-15T07:37:27.241Z,13.90
2018-04-15T07:39:55.914Z,14.30
2018-04-15T07:42:24.209Z,14.60
2018-04-15T07:44:51.831Z,14.60
2018-04-15T07:47:19.383Z,14.80
2018-04-15T07:49:46.914Z,15.80
2018-04-15T07:52:14.461Z,16.20
2018-04-15T07:54:43.564Z,17.40
2018-04-15T07:57:11.153Z,18.40
2018-04-15T07:59:39.507Z,20.40
2018-04-15T08:02:07.045Z,20.30
2018-04-15T08:04:34.700Z,18.40
2018-04-15T08:07:02.266Z,19.00
2018-04-15T08:09:29.791Z,19.80
2018-04-15T08:11:58.143Z,17.20
2018-04-15T08:14:25.710Z,17.10
2018-04-15T08:16:53.379Z,17.10
2018-04-15T08:19:21.767Z,19.10
2018-04-15T08:21:49.286Z,19.10
2018-04-15T08:24:16.815Z,19.30
2018-04-15T08:26:44.312Z,18.50
2018-04-15T08:29:11.827Z,16.60
2018-04-15T08:31:39.378Z,17.10
2018-04-15T08:34:06.924Z,18.70
2018-04-15T08:36:34.498Z,18.30
2018-04-15T08:39:02.182Z,18.30
2018-04-15T08:41:29.750Z,17.60
2018-04-15T08:43:57.275Z,16.00
2018-04-15T08:46:25.003Z,16.60
2018-04-15T08:48:52.501Z,17.30
2018-04-15T08:51:20.063Z,17.60
2018-04-15T08:53:47.611Z,16.90
2018-04-15T08:56:15.216Z,18.00
2018-04-15T08:58:42.877Z,16.90
2018-04-15T09:01:11.159Z,17.00
2018-04-15T09:03:38.725Z,17.00
2018-04-15T09:06:07.012Z,19.40
2018-04-15T09:08:35.431Z,20.70
2018-04-15T09:11:02.957Z,20.70
2018-04-15T09:13:30.508Z,20.00
2018-04-15T09:15:59.168Z,17.20
2018-04-15T09:18:26.670Z,17.20
2018-04-15T09:20:54.217Z,16.70
2018-04-15T09:23:21.740Z,17.40
2018-04-15T09:25:50.045Z,17.60
2018-04-15T09:28:17.607Z,17.60
2018-04-15T09:30:50.814Z,17.40
2018-04-15T09:33:18.384Z,17.20
2018-04-15T09:35:45.915Z,17.30
2018-04-15T09:38:13.481Z,17.50
2018-04-15T09:40:41.207Z,18.00
2018-04-15T09:43:08.736Z,16.60
2018-04-15T09:45:36.250Z,16.80
2018-04-15T09:48:04.600Z,18.80
2018-04-15T09:50:32.236Z,18.70
2018-04-15T09:52:59.760Z,18.50
2018-04-15T09:55:27.328Z,17.40
2018-04-15T09:57:54.944Z,17.80
2018-04-15T10:00:23.247Z,19.20
2018-04-15T10:02:50.830Z,19.10
2018-04-15T10:05:18.647Z,18.70
2018-04-15T10:07:46.193Z,18.60
2018-04-15T10:10:13.730Z,19.90
2018-04-15T10:12:41.495Z,20.80
2018-04-15T10:15:09.041Z,21.10
2018-04-15T10:17:36.561Z,21.00
2018-04-15T10:20:04.107Z,20.60
2018-04-15T10:22:32.404Z,21.40
2018-04-15T10:24:59.904Z,21.40
2018-04-15T10:27:28.217Z,19.50
2018-04-15T10:29:57.041Z,19.60
2018-04-15T10:32:24.563Z,19.60
2018-04-15T10:34:52.112Z,20.50
2018-04-15T10:37:20.415Z,21.20
2018-04-15T10:39:47.941Z,21.20
2018-04-15T10:42:16.225Z,21.60
2018-04-15T10:44:44.835Z,21.90
2018-04-15T10:47:12.393Z,21.90
2018-04-15T10:49:39.918Z,21.40
2018-04-15T10:52:08.231Z,18.50
2018-04-15T10:54:35.760Z,18.50
2018-04-15T10:57:04.050Z,17.40
2018-04-15T10:59:31.730Z,17.30
2018-04-15T11:01:59.304Z,17.60
2018-04-15T11:04:26.817Z,19.10
2018-04-15T11:06:54.988Z,19.50
2018-04-15T11:09:22.514Z,19.90
2018-04-15T11:11:50.069Z,20.50
2018-04-15T11:14:17.565Z,19.30
2018-04-15T11:16:45.095Z,17.70
2018-04-15T11:19:12.660Z,18.40
2018-04-15T11:21:40.930Z,19.00
2018-04-15T11:24:08.461Z,19.00
2018-04-15T11:26:35.993Z,19.80
2018-04-15T11:29:03.515Z,20.60
2018-04-15T11:31:31.786Z,20.40
2018-04-15T11:34:00.049Z,19.20
2018-04-15T11:36:27.569Z,19.20
2018-04-15T11:38:55.084Z,19.00
2018-04-15T11:41:23.368Z,19.50
2018-04-15T11:43:50.928Z,19.50
2018-04-15T11:46:18.563Z,20.20
2018-04-15T11:48:46.110Z,21.10
2018-04-15T11:51:13.716Z,20.90
2018-04-15T11:53:41.277Z,20.20
2018-04-15T11:56:08.845Z,20.50
2018-04-15T11:58:36.378Z,21.10
2018-04-15T12:01:04.687Z,21.30
2018-04-15T12:03:32.222Z,21.30
2018-04-15T12:05:59.721Z,21.00
2018-04-15T12:08:27.605Z,20.70
2018-04-15T12:10:55.216Z,20.80
2018-04-15T12:13:22.984Z,20.10
2018-04-15T12:15:50.744Z,20.10
2018-04-15T12:18:18.276Z,20.30
2018-04-15T12:20:46.560Z,19.70
2018-04-15T12:23:14.084Z,19.70
2018-04-15T12:25:41.599Z,19.50
2018-04-15T12:28:09.121Z,19.50
2018-04-15T12:30:37.371Z,19.70
2018-04-15T12:33:04.897Z,19.70
2018-04-15T12:35:32.429Z,19.80
2018-04-15T12:38:00.087Z,19.80
2018-04-15T12:40:27.608Z,20.10
2018-04-15T12:42:55.132Z,20.40
2018-04-15T12:45:22.685Z,20.50
2018-04-15T12:47:50.190Z,20.30
2018-04-15T12:50:18.512Z,20.20
2018-04-15T12:52:46.020Z,20.20
2018-04-15T12:55:14.345Z,19.40
2018-04-15T12:57:41.844Z,19.40
2018-04-15T13:00:09.382Z,19.80
2018-04-15T13:02:36.930Z,20.00
2018-04-15T13:05:04.435Z,20.10
2018-04-15T13:07:31.955Z,19.60
2018-04-15T13:09:59.604Z,19.90
2018-04-15T13:12:27.966Z,20.40
2018-04-15T13:14:55.486Z,20.40
2018-04-15T13:17:23.067Z,20.00
2018-04-15T13:19:50.704Z,19.60
2018-04-15T13:22:18.966Z,19.20
2018-04-15T13:24:47.901Z,19.20
2018-04-15T13:27:15.455Z,19.60
2018-04-15T13:29:42.987Z,20.30
2018-04-15T13:32:11.285Z,19.40
2018-04-15T13:34:43.352Z,19.30
2018-04-15T13:37:11.657Z,19.40
2018-04-15T13:39:39.219Z,19.40
2018-04-15T13:42:06.745Z,19.70
2018-04-15T13:44:34.536Z,19.60
2018-04-15T13:47:02.170Z,20.00
2018-04-15T13:49:30.601Z,20.20
2018-04-15T13:51:58.348Z,20.20
2018-04-15T13:54:26.032Z,20.50
2018-04-15T13:56:53.478Z,20.80
2018-04-15T13:59:21.051Z,21.10
2018-04-15T14:01:48.881Z,20.70
2018-04-15T14:04:17.169Z,21.00
2018-04-15T14:06:44.719Z,21.00
2018-04-15T14:09:12.294Z,21.00
2018-04-15T14:11:39.868Z,20.40
2018-04-15T14:14:07.475Z,20.20
2018-04-15T14:16:35.113Z,20.40
2018-04-15T14:19:05.263Z,20.70
2018-04-15T14:21:32.837Z,21.20
2018-04-15T14:24:00.340Z,21.30
2018-04-15T14:26:28.644Z,22.00
2018-04-15T14:28:56.197Z,22.00
2018-04-15T14:31:23.760Z,21.90
2018-04-15T14:33:51.264Z,21.80
2018-04-15T14:36:19.590Z,21.80
2018-04-15T14:38:47.147Z,21.80
2018-04-15T14:41:14.710Z,21.60
2018-04-15T14:43:42.212Z,21.40
2018-04-15T14:46:10.035Z,21.50
2018-04-15T14:48:37.576Z,21.60
2018-04-15T14:51:05.132Z,21.50
2018-04-15T14:53:33.524Z,21.50
2018-04-15T14:56:01.064Z,21.70
2018-04-15T14:58:28.648Z,21.60
2018-04-15T15:00:56.188Z,21.70
2018-04-15T15:03:23.734Z,21.60
2018-04-15T15:05:52.061Z,21.20
2018-04-15T15:08:19.813Z,21.20
2018-04-15T15:10:47.469Z,21.10
2018-04-15T15:13:15.094Z,21.10
2018-04-15T15:15:43.366Z,21.00
2018-04-15T15:18:11.672Z,21.00
2018-04-15T15:20:39.228Z,21.00
2018-04-15T15:23:06.853Z,20.90
2018-04-15T15:25:35.490Z,20.20
2018-04-15T15:28:03.026Z,20.20
2018-04-15T15:30:30.577Z,20.50
2018-04-15T15:32:58.150Z,20.80
2018-04-15T15:35:25.724Z,20.90
2018-04-15T15:37:53.386Z,20.90
2018-04-15T15:40:21.043Z,20.90
2018-04-15T15:42:49.314Z,20.80
2018-04-15T15:45:16.838Z,20.60
2018-04-15T15:47:45.313Z,20.40
2018-04-15T15:50:13.617Z,20.30
2018-04-15T15:52:41.128Z,20.30
2018-04-15T15:55:09.553Z,20.20
2018-04-15T15:57:37.116Z,20.20
2018-04-15T16:00:04.617Z,20.00
2018-04-15T16:02:32.942Z,20.10
2018-04-15T16:05:00.455Z,20.10
2018-04-15T16:07:29.532Z,20.20
2018-04-15T16:09:57.162Z,20.20
2018-04-15T16:12:24.667Z,20.00
2018-04-15T16:14:52.197Z,19.80
2018-04-15T16:17:19.835Z,19.50
2018-04-15T16:19:47.365Z,19.40
2018-04-15T16:22:15.023Z,19.40
2018-04-15T16:24:43.355Z,19.20
2018-04-15T16:27:11.814Z,19.20
2018-04-15T16:29:39.408Z,19.30
2018-04-15T16:32:06.930Z,19.30
2018-04-15T16:34:34.463Z,19.20
2018-04-15T16:37:01.993Z,19.20
2018-04-15T16:39:29.683Z,19.20
2018-04-15T16:41:57.258Z,19.20
2018-04-15T16:44:24.845Z,19.20
2018-04-15T16:46:52.405Z,19.10
2018-04-15T16:49:19.943Z,19.10
2018-04-15T16:51:47.479Z,18.90
2018-04-15T16:54:15.050Z,18.90
2018-04-15T16:56:42.657Z,18.80
2018-04-15T16:59:10.232Z,18.70
2018-04-15T17:01:38.517Z,18.80
2018-04-15T17:04:06.819Z,18.80
2018-04-15T17:06:34.378Z,18.70
2018-04-15T17:09:01.897Z,18.70
2018-04-15T17:11:30.216Z,18.60
2018-04-15T17:13:57.761Z,18.60
2018-04-15T17:16:25.330Z,18.60
2018-04-15T17:18:52.837Z,18.50
2018-04-15T17:21:20.372Z,18.50
2018-04-15T17:23:47.946Z,18.40
2018-04-15T17:26:15.473Z,18.40
2018-04-15T17:28:42.994Z,18.40
2018-04-15T17:31:11.296Z,18.30
2018-04-15T17:33:39.002Z,18.20
2018-04-15T17:36:06.580Z,18.10
2018-04-15T17:38:34.857Z,18.20
2018-04-15T17:41:03.166Z,18.00
2018-04-15T17:43:30.677Z,18.00
2018-04-15T17:45:59.039Z,17.90
2018-04-15T17:48:26.569Z,17.90
2018-04-15T17:50:54.127Z,17.90
2018-04-15T17:53:21.650Z,17.90
2018-04-15T17:55:49.953Z,17.80
2018-04-15T17:58:17.561Z,17.70
2018-04-15T18:00:45.069Z,17.70
2018-04-15T18:03:12.595Z,17.60
2018-04-15T18:05:40.884Z,17.50
2018-04-15T18:08:08.666Z,17.50
2018-04-15T18:10:36.726Z,17.50
2018-04-15T18:13:04.631Z,17.40
2018-04-15T18:15:32.194Z,17.40
2018-04-15T18:18:00.430Z,17.30
2018-04-15T18:20:28.035Z,17.20
2018-04-15T18:22:55.557Z,17.30
2018-04-15T18:25:23.840Z,17.10
2018-04-15T18:27:51.442Z,17.20
2018-04-15T18:30:19.246Z,17.10
2018-04-15T18:32:46.793Z,17.20
2018-04-15T18:35:14.321Z,17.10
2018-04-15T18:37:42.896Z,17.00
2018-04-15T18:40:11.378Z,17.00
2018-04-15T18:42:42.415Z,17.00
2018-04-15T18:45:09.972Z,16.90
2018-04-15T18:47:37.550Z,16.90
2018-04-15T18:50:06.048Z,16.70
2018-04-15T18:52:33.532Z,16.70
2018-04-15T18:55:01.363Z,16.70
2018-04-15T18:57:29.007Z,16.70
2018-04-15T18:59:56.793Z,16.70
2018-04-15T19:02:25.118Z,16.50
2018-04-15T19:04:56.548Z,16.50
2018-04-15T19:07:26.748Z,16.40
2018-04-15T19:09:54.255Z,16.40
2018-04-15T19:12:21.790Z,16.30
2018-04-15T19:14:49.294Z,16.30
2018-04-15T19:17:17.640Z,16.20
2018-04-15T19:19:45.166Z,16.20
2018-04-15T19:22:12.696Z,16.40
2018-04-15T19:24:41.065Z,16.30
2018-04-15T19:27:09.657Z,16.30
2018-04-15T19:29:37.216Z,16.30
2018-04-15T19:32:05.485Z,16.40
2018-04-15T19:34:33.782Z,16.30
2018-04-15T19:37:01.310Z,16.30
2018-04-15T19:39:29.640Z,16.20
2018-04-15T19:41:57.207Z,16.20
2018-04-15T19:44:24.714Z,16.10
2018-04-15T19:46:53.037Z,16.10
2018-04-15T19:49:20.585Z,16.10
2018-04-15T19:51:48.084Z,15.60
2018-04-15T19:54:15.600Z,15.70
2018-04-15T19:56:43.104Z,15.90
2018-04-15T19:59:11.399Z,15.90
2018-04-15T20:01:38.949Z,15.90
2018-04-15T20:04:06.541Z,15.90
2018-04-15T20:06:34.032Z,16.00
2018-04-15T20:09:01.657Z,16.00
2018-04-15T20:11:29.173Z,16.00
2018-04-15T20:13:57.479Z,16.30
2018-04-15T20:16:24.998Z,16.20
2018-04-15T20:18:52.547Z,16.10
2018-04-15T20:21:20.066Z,16.10
2018-04-15T20:23:47.589Z,15.90
2018-04-15T20:26:16.191Z,15.90
2018-04-15T20:28:44.488Z,16.00
2018-04-15T20:31:12.012Z,16.00
2018-04-15T20:33:40.321Z,15.80
2018-04-15T20:36:07.820Z,15.80
2018-04-15T20:38:36.126Z,15.60
2018-04-15T20:41:03.652Z,15.60
2018-04-15T20:43:31.468Z,15.60
2018-04-15T20:45:58.977Z,15.70
2018-04-15T20:48:26.589Z,15.60
2018-04-15T20:50:54.231Z,15.80
2018-04-15T20:53:21.832Z,16.00
2018-04-15T20:55:52.726Z,15.80
2018-04-15T20:58:20.305Z,15.80
2018-04-15T21:00:47.869Z,15.90
2018-04-15T21:03:15.396Z,15.80
2018-04-15T21:05:43.808Z,15.60
2018-04-15T21:08:11.367Z,15.50
2018-04-15T21:10:38.927Z,15.60
2018-04-15T21:13:06.454Z,15.60
2018-04-15T21:15:33.961Z,15.40
2018-04-15T21:18:01.554Z,15.50
2018-04-15T21:20:29.880Z,15.40
2018-04-15T21:22:57.428Z,15.40
2018-04-15T21:25:25.080Z,15.50
2018-04-15T21:27:52.576Z,15.50
2018-04-15T21:30:20.472Z,15.70
2018-04-15T21:32:48.745Z,15.40
2018-04-15T21:35:17.065Z,15.50
2018-04-15T21:37:44.816Z,15.50
2018-04-15T21:40:12.358Z,15.50
2018-04-15T21:42:39.981Z,15.40
2018-04-15T21:45:08.288Z,15.40
2018-04-15T21:47:36.641Z,15.40
2018-04-15T21:50:04.168Z,15.30
2018-04-15T21:52:31.781Z,15.40
2018-04-15T21:54:59.369Z,15.30
2018-04-15T21:57:27.089Z,15.30
2018-04-15T21:59:55.449Z,15.30
2018-04-15T22:02:23.738Z,15.30
2018-04-15T22:04:51.354Z,15.30
2018-04-15T22:07:18.873Z,15.20
2018-04-15T22:09:47.153Z,15.00
2018-04-15T22:12:14.642Z,15.00
2018-04-15T22:14:42.204Z,14.90
2018-04-15T22:17:10.536Z,14.70
2018-04-15T22:19:38.806Z,14.80
2018-04-15T22:22:07.105Z,14.90
2018-04-15T22:24:34.727Z,14.90
2018-04-15T22:27:02.520Z,14.80
2018-04-15T22:29:30.141Z,14.80
2018-04-15T22:31:57.660Z,14.90
2018-04-15T22:34:25.227Z,14.90
2018-04-15T22:36:52.714Z,14.70
2018-04-15T22:39:20.259Z,14.70
2018-04-15T22:41:47.769Z,14.90
2018-04-15T22:44:15.284Z,15.00
2018-04-15T22:46:42.864Z,15.00
2018-04-15T22:49:16.854Z,14.80
2018-04-15T22:51:44.391Z,14.80
2018-04-15T22:54:11.913Z,14.80
2018-04-15T22:56:43.303Z,14.70
2018-04-15T22:59:10.880Z,14.70
2018-04-15T23:01:38.410Z,14.40
2018-04-15T23:04:05.925Z,13.90
2018-04-15T23:06:34.221Z,13.20
2018-04-15T23:09:01.753Z,13.20
2018-04-15T23:11:30.021Z,13.10
2018-04-15T23:13:58.424Z,13.10
2018-04-15T23:16:25.960Z,13.00
2018-04-15T23:18:54.242Z,13.00
2018-04-15T23:21:22.529Z,13.00
2018-04-15T23:23:50.399Z,13.00
2018-04-15T23:26:17.975Z,12.90
2018-04-15T23:28:45.521Z,12.80
2018-04-15T23:31:13.060Z,12.80
2018-04-15T23:33:41.327Z,12.80
2018-04-15T23:36:09.636Z,12.80
2018-04-15T23:38:37.125Z,12.80
2018-04-15T23:41:04.732Z,12.80
2018-04-15T23:43:32.256Z,12.80
2018-04-15T23:45:59.767Z,12.80
2018-04-15T23:48:27.283Z,12.90
2018-04-15T23:50:54.786Z,13.00
2018-04-15T23:53:22.341Z,13.00
2018-04-15T23:55:49.895Z,12.90
2018-04-15T23:58:17.404Z,12.90
